createdAt,value
2017-11-21T00:00:08.459Z,82.26
2017-11-21T00:01:18.272Z,82.16
2017-11-21T00:02:28.383Z,82.35
2017-11-21T00:03:38.191Z,82.35
2017-11-21T00:04:47.997Z,82.26
2017-11-21T00:05:57.844Z,82.35
2017-11-21T00:07:07.928Z,82.26
2017-11-21T00:08:18.034Z,82.26
2017-11-21T00:09:28.104Z,82.45
2017-11-21T00:10:37.656Z,81.68
2017-11-21T00:11:47.763Z,82.26
2017-11-21T00:12:57.871Z,82.45
2017-11-21T00:14:07.980Z,82.16
2017-11-21T00:15:18.048Z,82.07
2017-11-21T00:16:28.137Z,82.16
2017-11-21T00:17:37.956Z,82.35
2017-11-21T00:18:48.043Z,82.16
2017-11-21T00:19:57.588Z,81.97
2017-11-21T00:21:07.396Z,81.87
2017-11-21T00:22:17.483Z,81.87
2017-11-21T00:23:27.311Z,81.59
2017-11-21T00:24:37.104Z,82.16
2017-11-21T00:25:46.719Z,81.68
2017-11-21T00:26:56.570Z,81.68
2017-11-21T00:28:06.391Z,81.68
2017-11-21T00:29:16.466Z,81.97
2017-11-21T00:30:26.534Z,81.78
2017-11-21T00:31:36.087Z,81.87
2017-11-21T00:32:45.916Z,81.87
2017-11-21T00:33:56.001Z,81.87
2017-11-21T00:35:05.808Z,81.87
2017-11-21T00:36:15.343Z,82.26
2017-11-21T00:37:25.473Z,82.35
2017-11-21T00:38:34.754Z,82.26
2017-11-21T00:39:44.305Z,82.26
2017-11-21T00:40:54.103Z,81.97
2017-11-21T00:42:16.969Z,82.16
2017-11-21T00:43:27.050Z,82.26
2017-11-21T00:44:37.115Z,81.78
2017-11-21T00:45:46.654Z,81.87
2017-11-21T00:46:56.215Z,81.87
2017-11-21T00:48:06.344Z,82.26
2017-11-21T00:49:16.137Z,82.26
2017-11-21T00:50:25.935Z,82.26
2017-11-21T00:51:36.005Z,82.26
2017-11-21T00:52:45.535Z,81.78
2017-11-21T00:53:56.552Z,82.26
2017-11-21T00:55:06.620Z,81.78
2017-11-21T00:56:16.696Z,81.78
2017-11-21T00:57:26.782Z,81.78
2017-11-21T00:58:36.867Z,81.78
2017-11-21T00:59:46.665Z,81.78
2017-11-21T01:00:56.460Z,81.68
2017-11-21T01:02:05.999Z,82.16
2017-11-21T01:03:15.793Z,81.78
2017-11-21T01:04:25.350Z,81.59
2017-11-21T01:05:35.462Z,81.78
2017-11-21T01:06:45.276Z,81.59
2017-11-21T01:07:54.810Z,81.78
2017-11-21T01:09:04.878Z,81.68
2017-11-21T01:10:14.950Z,81.97
2017-11-21T01:11:25.023Z,81.78
2017-11-21T01:12:34.823Z,81.78
2017-11-21T01:13:44.905Z,81.78
2017-11-21T01:14:54.458Z,81.97
2017-11-21T01:16:04.266Z,82.16
2017-11-21T01:17:14.402Z,81.87
2017-11-21T01:18:24.472Z,82.26
2017-11-21T01:19:34.302Z,82.16
2017-11-21T01:20:44.409Z,82.35
2017-11-21T01:21:55.011Z,81.68
2017-11-21T01:23:05.127Z,82.45
2017-11-21T01:24:15.224Z,82.26
2017-11-21T01:25:25.306Z,82.26
2017-11-21T01:26:35.098Z,82.16
2017-11-21T01:27:44.916Z,82.2
2017-11-21T01:28:54.729Z,82.16
2017-11-21T01:30:04.546Z,82.01
2017-11-21T01:31:14.622Z,82.2
2017-11-21T01:32:24.735Z,82.2
2017-11-21T01:33:34.535Z,82.1
2017-11-21T01:34:44.597Z,82.2
2017-11-21T01:35:54.407Z,82.2
2017-11-21T01:37:04.486Z,82.1
2017-11-21T01:38:14.027Z,82.29
2017-11-21T01:39:24.109Z,82.01
2017-11-21T01:40:33.915Z,82.01
2017-11-21T01:41:43.989Z,81.92
2017-11-21T01:42:54.059Z,81.92
2017-11-21T01:44:03.851Z,81.92
2017-11-21T01:45:13.921Z,81.92
2017-11-21T01:46:23.736Z,81.92
2017-11-21T01:47:33.804Z,82.01
2017-11-21T01:48:43.869Z,82.01
2017-11-21T01:49:53.406Z,82.01
2017-11-21T01:51:03.221Z,82.01
2017-11-21T01:52:13.336Z,82.1
2017-11-21T01:53:23.402Z,82.01
2017-11-21T01:54:32.946Z,82.01
2017-11-21T01:55:42.769Z,82.2
2017-11-21T01:56:52.843Z,82.01
2017-11-21T01:58:02.910Z,82.2
2017-11-21T01:59:12.982Z,82.01
2017-11-21T02:00:23.260Z,82.39
2017-11-21T02:01:33.330Z,81.73
2017-11-21T02:02:43.474Z,82.2
2017-11-21T02:03:53.546Z,82.01
2017-11-21T02:05:03.349Z,82.39
2017-11-21T02:06:13.415Z,82.29
2017-11-21T02:07:23.238Z,82.2
2017-11-21T02:08:33.313Z,82.01
2017-11-21T02:09:43.394Z,82.01
2017-11-21T02:10:52.930Z,81.92
2017-11-21T02:12:02.738Z,82.01
2017-11-21T02:13:12.799Z,82.01
2017-11-21T02:14:22.872Z,81.82
2017-11-21T02:15:32.415Z,81.82
2017-11-21T02:16:42.219Z,82.01
2017-11-21T02:17:52.302Z,82.01
2017-11-21T02:19:02.374Z,82.49
2017-11-21T02:20:12.512Z,82.1
2017-11-21T02:21:22.595Z,81.82
2017-11-21T02:22:32.667Z,81.82
2017-11-21T02:23:42.204Z,81.73
2017-11-21T02:24:52.268Z,82.1
2017-11-21T02:26:02.061Z,82.01
2017-11-21T02:27:12.137Z,81.92
2017-11-21T02:28:22.200Z,81.82
2017-11-21T02:29:31.460Z,82.39
2017-11-21T02:30:41.529Z,82.2
2017-11-21T02:31:51.665Z,82.2
2017-11-21T02:33:01.726Z,82.39
2017-11-21T02:34:11.825Z,82.29
2017-11-21T02:35:21.650Z,81.82
2017-11-21T02:36:31.733Z,81.82
2017-11-21T02:37:41.891Z,81.92
2017-11-21T02:38:51.435Z,81.82
2017-11-21T02:40:01.530Z,81.63
2017-11-21T02:41:11.337Z,81.73
2017-11-21T02:42:21.454Z,81.82
2017-11-21T02:43:31.241Z,82.2
2017-11-21T02:44:41.043Z,81.92
2017-11-21T02:45:51.114Z,82.29
2017-11-21T02:47:00.663Z,82.29
2017-11-21T02:48:10.476Z,81.92
2017-11-21T02:49:20.298Z,82.01
2017-11-21T02:50:30.386Z,82.1
2017-11-21T02:51:40.210Z,82.01
2017-11-21T02:52:50.037Z,82.1
2017-11-21T02:54:00.127Z,82.1
2017-11-21T02:55:09.974Z,82.2
2017-11-21T02:56:19.779Z,82.1
2017-11-21T02:57:29.339Z,81.92
2017-11-21T02:58:39.404Z,82.01
2017-11-21T02:59:49.475Z,81.92
2017-11-21T03:00:59.552Z,82.01
2017-11-21T03:02:09.351Z,82.01
2017-11-21T03:33:52.997Z,78.81
2017-11-21T03:35:03.053Z,79.28
2017-11-21T03:36:13.127Z,80
2017-11-21T03:37:23.195Z,81.52
2017-11-21T03:38:33.268Z,81.81
2017-11-21T03:39:43.115Z,81.75
2017-11-21T03:40:53.185Z,82.13
2017-11-21T03:42:03.381Z,83.17
2017-11-21T03:43:13.477Z,83.46
2017-11-21T03:44:23.551Z,83.08
2017-11-21T03:45:33.667Z,82.98
2017-11-21T03:46:43.475Z,83.4
2017-11-21T03:47:53.276Z,83.03
2017-11-21T03:49:03.088Z,82.84
2017-11-21T03:50:13.151Z,83.12
2017-11-21T03:51:22.951Z,83.4
2017-11-21T03:52:33.024Z,83.16
2017-11-21T03:53:43.127Z,83.26
2017-11-21T03:54:53.197Z,82.97
2017-11-21T03:56:02.783Z,82.69
2017-11-21T03:57:12.896Z,82.88
2017-11-21T03:58:22.977Z,82.97
2017-11-21T03:59:32.794Z,82.97
2017-11-21T04:00:42.603Z,82.97
2017-11-21T04:01:52.707Z,83.07
2017-11-21T04:03:02.499Z,83.11
2017-11-21T04:04:12.593Z,82.45
2017-11-21T04:05:21.871Z,82.26
2017-11-21T04:06:31.936Z,82.26
2017-11-21T04:07:41.489Z,82.26
2017-11-21T04:08:51.604Z,82.45
2017-11-21T04:10:01.669Z,82.54
2017-11-21T04:11:11.483Z,82.64
2017-11-21T04:12:21.562Z,82.45
2017-11-21T04:13:31.639Z,82.26
2017-11-21T04:14:41.936Z,82.54
2017-11-21T04:15:52.007Z,82.54
2017-11-21T04:17:01.550Z,82.07
2017-11-21T04:18:11.363Z,82.07
2017-11-21T04:19:20.659Z,82.35
2017-11-21T04:20:30.737Z,82.45
2017-11-21T04:21:40.643Z,82.1
2017-11-21T04:22:50.214Z,82.92
2017-11-21T04:24:00.323Z,82.2
2017-11-21T04:25:10.144Z,82.73
2017-11-21T04:26:20.207Z,82.07
2017-11-21T04:27:29.756Z,82.2
2017-11-21T04:28:39.562Z,82.01
2017-11-21T04:29:49.375Z,82.01
2017-11-21T04:30:59.458Z,82.01
2017-11-21T04:32:09.540Z,82.2
2017-11-21T04:33:19.087Z,82.2
2017-11-21T04:34:28.908Z,82.77
2017-11-21T04:35:38.724Z,82.1
2017-11-21T04:36:48.791Z,82.1
2017-11-21T04:37:58.845Z,82.49
2017-11-21T04:39:08.650Z,82.58
2017-11-21T04:40:18.464Z,82.68
2017-11-21T04:41:28.522Z,82.68
2017-11-21T04:42:38.061Z,82.77
2017-11-21T04:43:47.918Z,82.77
2017-11-21T04:44:58.036Z,82.77
2017-11-21T04:46:08.109Z,82.87
2017-11-21T04:47:18.188Z,82.49
2017-11-21T04:48:27.723Z,82.49
2017-11-21T04:49:37.844Z,82.68
2017-11-21T04:50:47.904Z,82.49
2017-11-21T04:51:57.981Z,82.58
2017-11-21T04:53:08.069Z,82.49
2017-11-21T04:54:18.180Z,82.49
2017-11-21T04:55:27.983Z,82.39
2017-11-21T04:56:38.068Z,82.45
2017-11-21T04:57:47.910Z,82.64
2017-11-21T04:58:57.730Z,82.26
2017-11-21T05:00:07.805Z,82.26
2017-11-21T05:01:17.136Z,82.26
2017-11-21T05:02:27.208Z,82.26
2017-11-21T05:03:37.010Z,82.26
2017-11-21T05:04:46.822Z,82.68
2017-11-21T05:05:56.640Z,82.49
2017-11-21T05:07:06.453Z,82.45
2017-11-21T05:08:16.522Z,82.45
2017-11-21T05:09:26.605Z,82.64
2017-11-21T05:10:36.686Z,82.26
2017-11-21T05:11:46.775Z,82.26
2017-11-21T05:12:56.618Z,82.26
2017-11-21T05:14:06.411Z,82.58
2017-11-21T05:15:16.217Z,82.45
2017-11-21T05:16:26.033Z,82.45
2017-11-21T05:17:35.828Z,82.26
2017-11-21T05:18:45.958Z,82.49
2017-11-21T05:19:55.756Z,82.54
2017-11-21T05:21:05.818Z,82.35
2017-11-21T05:22:15.882Z,82.35
2017-11-21T05:23:25.958Z,82.58
2017-11-21T05:24:36.038Z,82.35
2017-11-21T05:25:45.850Z,82.45
2017-11-21T05:26:55.675Z,82.64
2017-11-21T05:28:05.492Z,82.26
2017-11-21T05:29:15.291Z,82.26
2017-11-21T05:30:24.845Z,82.26
2017-11-21T05:31:34.908Z,82.35
2017-11-21T05:32:44.982Z,82.26
2017-11-21T05:33:54.523Z,82.64
2017-11-21T05:35:04.604Z,82.64
2017-11-21T05:36:14.685Z,82.64
2017-11-21T05:37:24.768Z,82.45
2017-11-21T05:38:34.318Z,82.64
2017-11-21T05:39:44.384Z,82.26
2017-11-21T05:40:54.186Z,82.35
2017-11-21T05:42:03.461Z,82.45
2017-11-21T05:43:13.281Z,82.26
2017-11-21T05:44:23.120Z,82.45
2017-11-21T05:45:33.207Z,82.45
2017-11-21T05:46:43.300Z,82.26
2017-11-21T05:47:53.375Z,82.45
2017-11-21T05:49:03.474Z,82.35
2017-11-21T05:50:13.036Z,82.35
2017-11-21T05:51:22.831Z,82.26
2017-11-21T05:52:32.640Z,82.26
2017-11-21T05:53:42.439Z,82.45
2017-11-21T05:54:52.256Z,82.26
2017-11-21T05:56:02.056Z,82.45
2017-11-21T05:57:12.132Z,82.26
2017-11-21T05:58:22.213Z,82.26
2017-11-21T05:59:31.771Z,82.64
2017-11-21T06:00:41.842Z,82.26
2017-11-21T06:01:51.927Z,82.31
2017-11-21T06:03:01.999Z,82.26
2017-11-21T06:04:11.812Z,82.45
2017-11-21T06:05:21.913Z,82.73
2017-11-21T06:06:31.186Z,82.73
2017-11-21T06:07:40.999Z,82.45
2017-11-21T06:08:51.082Z,82.64
2017-11-21T06:10:01.160Z,82.64
2017-11-21T06:11:11.252Z,82.64
2017-11-21T06:12:21.338Z,82.35
2017-11-21T06:13:31.164Z,82.54
2017-11-21T06:14:41.240Z,82.35
2017-11-21T06:15:51.325Z,82.16
2017-11-21T06:17:01.122Z,82.54
2017-11-21T06:18:11.219Z,82.35
2017-11-21T06:19:21.330Z,82.73
2017-11-21T06:20:31.391Z,82.73
2017-11-21T06:21:41.462Z,82.54
2017-11-21T06:22:52.824Z,82.35
2017-11-21T06:24:02.399Z,82.54
2017-11-21T06:25:12.480Z,82.54
2017-11-21T06:26:22.348Z,82.45
2017-11-21T06:27:31.884Z,82.82
2017-11-21T06:28:41.964Z,82.54
2017-11-21T06:29:52.073Z,82.64
2017-11-21T06:31:02.167Z,82.16
2017-11-21T06:32:12.247Z,82.35
2017-11-21T06:33:22.067Z,82.82
2017-11-21T06:34:32.217Z,82.16
2017-11-21T06:35:42.028Z,82.64
2017-11-21T06:36:52.400Z,82.73
2017-11-21T06:38:02.482Z,82.73
2017-11-21T06:39:12.558Z,82.35
2017-11-21T06:40:22.680Z,82.54
2017-11-21T06:41:32.744Z,82.45
2017-11-21T06:42:42.809Z,82.54
2017-11-21T06:43:52.879Z,82.82
2017-11-21T06:45:02.955Z,81.97
2017-11-21T06:46:13.011Z,82.35
2017-11-21T06:47:23.075Z,82.07
2017-11-21T06:48:32.864Z,82.07
2017-11-21T06:49:42.943Z,82.64
2017-11-21T06:50:53.006Z,82.45
2017-11-21T06:52:02.866Z,82.54
2017-11-21T06:53:12.959Z,82.45
2017-11-21T06:54:22.754Z,82.45
2017-11-21T06:55:32.853Z,82.45
2017-11-21T06:56:42.940Z,82.54
2017-11-21T06:57:52.924Z,82.45
2017-11-21T06:59:02.733Z,82.16
2017-11-21T07:00:12.548Z,82.82
2017-11-21T07:01:22.620Z,81.97
2017-11-21T07:02:32.690Z,82.45
2017-11-21T07:03:42.542Z,81.87
2017-11-21T07:04:52.343Z,81.87
2017-11-21T07:06:01.900Z,81.87
2017-11-21T07:07:11.627Z,82.35
2017-11-21T07:08:21.699Z,82.45
2017-11-21T07:09:31.571Z,82.16
2017-11-21T07:10:41.404Z,81.78
2017-11-21T07:11:51.240Z,81.78
2017-11-21T07:13:00.783Z,82.35
2017-11-21T07:14:10.877Z,82.35
2017-11-21T07:15:20.974Z,82.45
2017-11-21T07:16:31.065Z,82.35
2017-11-21T07:17:41.138Z,82.07
2017-11-21T07:18:51.237Z,82.26
2017-11-21T07:20:01.336Z,82.07
2017-11-21T07:21:11.445Z,82.35
2017-11-21T07:22:21.277Z,82.35
2017-11-21T07:23:31.367Z,82.26
2017-11-21T07:24:41.457Z,81.87
2017-11-21T07:25:51.000Z,81.78
2017-11-21T07:27:00.791Z,82.26
2017-11-21T07:28:10.611Z,82.45
2017-11-21T07:29:20.678Z,82.35
2017-11-21T07:30:30.474Z,82.35
2017-11-21T07:31:40.025Z,82.16
2017-11-21T07:32:50.103Z,82.35
2017-11-21T07:33:59.905Z,82.07
2017-11-21T07:35:10.040Z,81.97
2017-11-21T07:36:19.901Z,82.1
2017-11-21T07:37:29.704Z,81.92
2017-11-21T07:38:39.503Z,82.1
2017-11-21T07:39:49.580Z,82.39
2017-11-21T07:40:59.421Z,81.92
2017-11-21T07:42:08.986Z,81.63
2017-11-21T07:43:19.048Z,82.01
2017-11-21T07:44:28.844Z,82.1
2017-11-21T07:45:38.647Z,81.82
2017-11-21T07:46:48.463Z,82.2
2017-11-21T07:47:58.526Z,82.01
2017-11-21T07:49:08.602Z,82.1
2017-11-21T07:50:18.424Z,82.01
2017-11-21T07:51:28.502Z,82.29
2017-11-21T07:52:38.576Z,82.39
2017-11-21T07:53:47.842Z,82.39
2017-11-21T07:54:57.658Z,81.92
2017-11-21T07:56:07.562Z,81.92
2017-11-21T07:57:17.665Z,81.92
2017-11-21T07:58:27.748Z,81.92
2017-11-21T07:59:37.825Z,81.92
2017-11-21T08:00:47.621Z,82.01
2017-11-21T08:01:57.435Z,81.92
2017-11-21T08:03:07.263Z,81.92
2017-11-21T08:04:17.072Z,81.92
2017-11-21T08:05:26.880Z,81.82
2017-11-21T08:06:36.420Z,82.01
2017-11-21T08:07:46.214Z,82.01
2017-11-21T08:08:56.005Z,81.82
2017-11-21T08:10:05.809Z,81.92
2017-11-21T08:11:15.607Z,81.92
2017-11-21T08:12:25.666Z,82.1
2017-11-21T08:13:35.472Z,82.15
2017-11-21T08:14:45.558Z,82.29
2017-11-21T08:15:55.109Z,82.34
2017-11-21T08:17:04.957Z,82.29
2017-11-21T08:18:14.765Z,81.77
2017-11-21T08:19:24.556Z,82.05
2017-11-21T08:20:34.621Z,82.43
2017-11-21T08:21:44.708Z,81.96
2017-11-21T08:22:54.527Z,82.15
2017-11-21T08:24:04.352Z,82.15
2017-11-21T08:25:14.226Z,82.43
2017-11-21T08:26:24.035Z,82.05
2017-11-21T08:27:33.868Z,82.43
2017-11-21T08:28:43.944Z,82.24
2017-11-21T08:29:54.045Z,82.43
2017-11-21T08:31:04.186Z,81.67
2017-11-21T08:32:14.267Z,82.34
2017-11-21T08:33:24.330Z,82.28
2017-11-21T08:34:33.886Z,82.28
2017-11-21T08:35:43.958Z,82.38
2017-11-21T08:36:54.076Z,81.86
2017-11-21T08:38:04.165Z,82
2017-11-21T08:39:14.258Z,82
2017-11-21T08:40:24.085Z,81.71
2017-11-21T08:41:33.359Z,81.9
2017-11-21T08:42:43.210Z,82.19
2017-11-21T08:43:53.300Z,82.38
2017-11-21T08:45:03.156Z,82
2017-11-21T08:46:12.714Z,82.09
2017-11-21T08:47:21.982Z,82.38
2017-11-21T08:48:31.843Z,82.19
2017-11-21T08:49:41.704Z,82.04
2017-11-21T08:50:51.801Z,82.51
2017-11-21T08:52:01.876Z,82.23
2017-11-21T08:53:11.686Z,81.85
2017-11-21T08:54:21.791Z,82.04
2017-11-21T08:55:31.879Z,82.42
2017-11-21T08:56:41.941Z,82.14
2017-11-21T08:57:51.762Z,82.04
2017-11-21T08:59:01.304Z,82.14
2017-11-21T09:00:11.630Z,82.27
2017-11-21T09:01:21.427Z,82.27
2017-11-21T09:02:31.506Z,82.27
2017-11-21T09:03:41.605Z,82.27
2017-11-21T09:04:51.163Z,82.08
2017-11-21T09:06:00.975Z,82.08
2017-11-21T09:07:10.781Z,82.93
2017-11-21T09:08:20.858Z,82.56
2017-11-21T09:09:30.653Z,82.46
2017-11-21T09:10:40.728Z,82.56
2017-11-21T09:11:50.593Z,82.46
2017-11-21T09:13:00.402Z,82.46
2017-11-21T09:14:10.476Z,82.46
2017-11-21T09:15:20.551Z,82.89
2017-11-21T09:16:30.363Z,82.84
2017-11-21T09:17:40.509Z,82.69
2017-11-21T09:18:50.329Z,82.6
2017-11-21T09:19:59.890Z,82.6
2017-11-21T09:21:09.961Z,82.41
2017-11-21T09:22:19.848Z,82.98
2017-11-21T09:23:29.646Z,82.89
2017-11-21T09:24:39.754Z,82.79
2017-11-21T09:25:49.580Z,82.5
2017-11-21T09:26:59.121Z,82.69
2017-11-21T09:28:09.205Z,83.17
2017-11-21T09:29:19.366Z,83.07
2017-11-21T09:30:29.201Z,83.55
2017-11-21T09:31:38.996Z,83.55
2017-11-21T09:32:48.844Z,83.26
2017-11-21T09:33:58.656Z,83.36
2017-11-21T09:35:08.784Z,83.45
2017-11-21T09:36:18.599Z,83.36
2017-11-21T09:37:28.413Z,83.45
2017-11-21T09:38:38.480Z,83.36
2017-11-21T09:39:48.556Z,83.55
2017-11-21T09:40:58.629Z,83.17
2017-11-21T09:42:08.452Z,83.45
2017-11-21T09:43:18.817Z,83.65
2017-11-21T09:44:28.906Z,83.55
2017-11-21T09:45:38.203Z,83.45
2017-11-21T09:46:48.281Z,83.26
2017-11-21T09:47:58.433Z,83.45
2017-11-21T09:49:08.497Z,83.36
2017-11-21T09:50:17.770Z,82.89
2017-11-21T09:51:27.563Z,83.12
2017-11-21T09:52:37.390Z,83.21
2017-11-21T09:53:47.526Z,83.17
2017-11-21T09:54:57.604Z,83.21
2017-11-21T09:56:07.410Z,82.83
2017-11-21T09:57:17.232Z,82.83
2017-11-21T09:58:27.052Z,83.21
2017-11-21T09:59:36.930Z,83.12
2017-11-21T10:00:47.442Z,83.31
2017-11-21T10:01:57.526Z,83.31
2017-11-21T10:03:07.620Z,83.31
2017-11-21T10:04:17.702Z,83.21
2017-11-21T10:05:28.585Z,83.59
2017-11-21T10:06:38.672Z,83.5
2017-11-21T10:07:48.498Z,83.4
2017-11-21T10:08:58.317Z,83.59
2017-11-21T10:10:08.401Z,83.31
2017-11-21T10:11:18.567Z,83.31
2017-11-21T10:12:28.646Z,83.12
2017-11-21T10:13:38.215Z,83.59
2017-11-21T10:14:48.281Z,83.59
2017-11-21T10:15:58.106Z,83.5
2017-11-21T10:17:07.912Z,83.59
2017-11-21T10:18:17.444Z,83.5
2017-11-21T10:19:27.258Z,82.92
2017-11-21T10:20:36.801Z,83.35
2017-11-21T10:21:46.608Z,82.59
2017-11-21T10:22:56.506Z,82.78
2017-11-21T10:24:06.573Z,83.35
2017-11-21T10:25:16.413Z,82.97
2017-11-21T10:26:25.957Z,83.35
2017-11-21T10:27:36.049Z,83.54
2017-11-21T10:28:46.183Z,82.59
2017-11-21T10:29:56.307Z,82.97
2017-11-21T10:31:06.382Z,82.97
2017-11-21T10:32:16.204Z,82.68
2017-11-21T10:33:25.779Z,82.68
2017-11-21T10:34:35.664Z,82.78
2017-11-21T10:35:45.759Z,83.11
2017-11-21T10:36:55.573Z,83.01
2017-11-21T10:38:05.374Z,82.91
2017-11-21T10:39:15.285Z,83.01
2017-11-21T10:40:25.426Z,82.91
2017-11-21T10:41:35.238Z,82.91
2017-11-21T10:42:46.581Z,82.82
2017-11-21T10:43:56.394Z,83.48
2017-11-21T10:45:06.870Z,82.63
2017-11-21T10:46:16.955Z,83.01
2017-11-21T10:47:26.795Z,82.91
2017-11-21T10:48:36.858Z,82.53
2017-11-21T10:49:46.456Z,82.91
2017-11-21T10:50:56.537Z,82.72
2017-11-21T10:52:06.403Z,82.82
2017-11-21T10:53:16.225Z,82.63
2017-11-21T10:54:26.033Z,82.63
2017-11-21T10:55:35.849Z,82.82
2017-11-21T10:56:45.664Z,82.82
2017-11-21T10:57:55.492Z,82.82
2017-11-21T10:59:05.305Z,82.43
2017-11-21T11:00:15.797Z,82.15
2017-11-21T11:01:25.869Z,82.29
2017-11-21T11:02:36.980Z,82.48
2017-11-21T11:03:46.792Z,82.38
2017-11-21T11:04:56.610Z,82.48
2017-11-21T11:06:06.714Z,82.48
2017-11-21T11:07:16.768Z,82.48
2017-11-21T11:08:26.608Z,82.48
2017-11-21T11:09:36.501Z,82.29
2017-11-21T11:10:47.041Z,83.05
2017-11-21T11:11:56.855Z,82.86
2017-11-21T11:13:06.407Z,82.67
2017-11-21T11:14:16.236Z,83.43
2017-11-21T11:15:26.113Z,83.05
2017-11-21T11:16:35.925Z,83.24
2017-11-21T11:17:46.029Z,83.05
2017-11-21T11:18:55.832Z,83.43
2017-11-21T11:20:05.658Z,82.76
2017-11-21T11:21:15.522Z,83.05
2017-11-21T11:22:25.328Z,82.86
2017-11-21T11:23:35.451Z,82.95
2017-11-21T11:24:45.536Z,82.76
2017-11-21T11:25:55.620Z,82.86
2017-11-21T11:27:05.477Z,83.53
2017-11-21T11:28:15.023Z,82.86
2017-11-21T11:29:25.120Z,82.76
2017-11-21T11:30:34.664Z,82.86
2017-11-21T11:31:44.751Z,82.48
2017-11-21T11:32:54.550Z,82.57
2017-11-21T11:34:04.377Z,82.86
2017-11-21T11:35:14.189Z,82.86
2017-11-21T11:36:24.272Z,83.24
2017-11-21T11:37:34.091Z,83.53
2017-11-21T11:38:44.166Z,82.86
2017-11-21T11:39:54.256Z,83.14
2017-11-21T11:41:03.559Z,83.05
2017-11-21T11:42:13.624Z,82.9
2017-11-21T11:43:23.433Z,82.86
2017-11-21T11:44:33.543Z,83.05
2017-11-21T11:45:43.375Z,82.57
2017-11-21T11:46:53.184Z,82.9
2017-11-21T11:48:02.464Z,82.81
2017-11-21T11:49:12.265Z,83.47
2017-11-21T11:50:22.434Z,83.43
2017-11-21T11:51:32.483Z,83.34
2017-11-21T11:52:42.543Z,83.24
2017-11-21T11:53:52.616Z,83.09
2017-11-21T11:55:02.710Z,83.62
2017-11-21T11:56:12.815Z,83.72
2017-11-21T11:57:22.894Z,83.72
2017-11-21T11:58:32.971Z,83.47
2017-11-21T11:59:42.514Z,83
2017-11-21T12:00:52.327Z,83.38
2017-11-21T12:02:01.946Z,83.38
2017-11-21T12:03:12.047Z,83.18
2017-11-21T12:04:21.870Z,83.09
2017-11-21T12:05:31.687Z,83.62
2017-11-21T12:06:41.506Z,83.53
2017-11-21T12:07:51.364Z,83.67
2017-11-21T12:09:01.162Z,83.34
2017-11-21T12:10:11.263Z,84
2017-11-21T12:11:21.367Z,83.24
2017-11-21T12:12:30.647Z,83.62
2017-11-21T12:13:40.721Z,83.53
2017-11-21T12:14:50.549Z,83.34
2017-11-21T12:16:00.352Z,83.05
2017-11-21T12:17:10.475Z,83.47
2017-11-21T12:18:20.564Z,83.38
2017-11-21T12:19:30.427Z,83.38
2017-11-21T12:20:40.247Z,83.28
2017-11-21T12:21:49.790Z,83.28
2017-11-21T12:22:59.891Z,83.09
2017-11-21T12:24:09.994Z,83.09
2017-11-21T12:25:20.128Z,83.18
2017-11-21T12:26:30.208Z,83.47
2017-11-21T12:27:39.755Z,82.71
2017-11-21T12:28:49.834Z,83.09
2017-11-21T12:30:00.342Z,82.32
2017-11-21T12:31:10.426Z,82.52
2017-11-21T12:32:20.229Z,82.75
2017-11-21T12:33:30.326Z,82.37
2017-11-21T12:34:40.401Z,82.56
2017-11-21T12:35:50.505Z,82.75
2017-11-21T12:37:00.353Z,82.79
2017-11-21T12:38:10.165Z,82.94
2017-11-21T12:39:19.722Z,82.46
2017-11-21T12:40:29.817Z,82.08
2017-11-21T12:41:39.650Z,82.41
2017-11-21T12:42:49.520Z,83.13
2017-11-21T12:43:59.342Z,82.75
2017-11-21T12:45:09.163Z,83.51
2017-11-21T12:46:19.234Z,83.42
2017-11-21T12:47:29.046Z,83.51
2017-11-21T12:48:39.165Z,83.76
2017-11-21T12:49:48.992Z,83.47
2017-11-21T12:51:00.087Z,83.95
2017-11-21T12:52:10.183Z,83.76
2017-11-21T12:53:20.008Z,83.76
2017-11-21T12:54:30.158Z,83.95
2017-11-21T12:55:40.013Z,83.76
2017-11-21T12:56:49.314Z,84.33
2017-11-21T12:57:59.415Z,84.14
2017-11-21T12:59:09.485Z,84.33
2017-11-21T13:00:19.613Z,84.14
2017-11-21T13:01:29.713Z,84.62
2017-11-21T13:02:39.798Z,83.76
2017-11-21T13:03:49.879Z,83.86
2017-11-21T13:04:59.961Z,83.95
2017-11-21T13:06:10.047Z,83.67
2017-11-21T13:07:20.106Z,83.67
2017-11-21T13:08:29.662Z,83.28
2017-11-21T13:09:39.747Z,83.57
2017-11-21T13:10:49.564Z,83.18
2017-11-21T13:11:59.724Z,83.95
2017-11-21T13:13:09.545Z,83.86
2017-11-21T13:14:19.627Z,83.38
2017-11-21T13:15:28.900Z,83.09
2017-11-21T13:16:38.723Z,83.28
2017-11-21T13:17:48.640Z,83.18
2017-11-21T13:18:58.715Z,83.38
2017-11-21T13:20:08.513Z,83.57
2017-11-21T13:21:18.317Z,83.57
2017-11-21T13:22:28.387Z,83.76
2017-11-21T13:23:38.481Z,83.57
2017-11-21T13:24:48.286Z,83.76
2017-11-21T13:25:58.110Z,83.47
2017-11-21T13:27:08.205Z,83.18
2017-11-21T13:28:18.287Z,83.28
2017-11-21T13:29:28.087Z,83.76
2017-11-21T13:30:38.169Z,83.67
2017-11-21T13:31:47.992Z,83.47
2017-11-21T13:32:58.081Z,83.67
2017-11-21T13:34:08.179Z,83.57
2017-11-21T13:35:18.041Z,83.67
2017-11-21T13:36:27.860Z,83.76
2017-11-21T13:37:37.939Z,83.95
2017-11-21T13:38:47.998Z,84.52
2017-11-21T13:39:57.547Z,83.76
2017-11-21T13:41:07.628Z,83.86
2017-11-21T13:42:17.449Z,83.18
2017-11-21T13:43:27.541Z,83.47
2017-11-21T13:44:37.626Z,83.47
2017-11-21T13:45:47.725Z,83.47
2017-11-21T13:46:57.866Z,83.95
2017-11-21T13:48:07.934Z,83.95
2017-11-21T13:49:17.521Z,83.95
2017-11-21T13:50:26.795Z,83.95
2017-11-21T13:51:36.353Z,83.76
2017-11-21T13:52:46.188Z,83.86
2017-11-21T13:53:56.002Z,84.33
2017-11-21T13:55:05.842Z,84.39
2017-11-21T13:56:15.946Z,84.39
2017-11-21T13:57:26.025Z,84.1
2017-11-21T13:58:35.907Z,83.91
2017-11-21T13:59:45.737Z,84.1
2017-11-21T14:00:55.804Z,84.2
2017-11-21T14:02:05.880Z,84.29
2017-11-21T14:03:15.700Z,84.1
2017-11-21T14:04:25.834Z,84
2017-11-21T14:05:35.926Z,84
2017-11-21T14:06:46.006Z,84.16
2017-11-21T14:07:56.073Z,84.06
2017-11-21T14:09:05.886Z,84.44
2017-11-21T14:10:15.991Z,84.34
2017-11-21T14:11:25.554Z,84.25
2017-11-21T14:12:35.651Z,84.16
2017-11-21T14:13:45.716Z,84.44
2017-11-21T14:14:55.781Z,84.25
2017-11-21T14:16:06.271Z,84.34
2017-11-21T14:17:16.377Z,84.16
2017-11-21T14:18:26.215Z,84.16
2017-11-21T14:19:36.301Z,83.96
2017-11-21T14:20:46.398Z,84.06
2017-11-21T14:21:57.544Z,84.06
2017-11-21T14:23:07.638Z,83.87
2017-11-21T14:24:17.726Z,83.87
2017-11-21T14:25:27.544Z,83.87
2017-11-21T14:26:38.486Z,83.87
2017-11-21T14:27:48.549Z,83.87
2017-11-21T14:28:58.356Z,83.87
2017-11-21T14:30:08.441Z,83.67
2017-11-21T14:31:18.531Z,83.87
2017-11-21T14:32:28.618Z,83.96
2017-11-21T14:33:38.703Z,83.67
2017-11-21T14:34:48.510Z,83.87
2017-11-21T14:35:58.063Z,83.67
2017-11-21T14:37:07.883Z,84.06
2017-11-21T14:38:17.699Z,83.96
2017-11-21T14:39:27.822Z,83.96
2017-11-21T14:40:37.899Z,84.25
2017-11-21T14:41:47.713Z,84.16
2017-11-21T14:42:57.270Z,84.06
2017-11-21T14:44:06.824Z,84.06
2017-11-21T14:45:16.950Z,83.96
2017-11-21T14:46:27.026Z,83.96
2017-11-21T14:47:37.100Z,84.06
2017-11-21T14:48:47.188Z,83.96
2017-11-21T14:49:57.246Z,84.16
2017-11-21T14:51:07.218Z,84.06
2017-11-21T14:52:17.039Z,84.25
2017-11-21T14:53:26.887Z,84.53
2017-11-21T14:54:36.694Z,84.25
2017-11-21T14:55:46.503Z,84.34
2017-11-21T14:56:56.645Z,84.25
2017-11-21T14:58:06.234Z,84.25
2017-11-21T14:59:16.839Z,84.53
2017-11-21T15:00:26.919Z,84.53
2017-11-21T15:01:37.000Z,84.44
2017-11-21T15:02:46.902Z,84.16
2017-11-21T15:03:58.567Z,84.44
2017-11-21T15:05:11.115Z,84.44
2017-11-21T15:06:23.518Z,84.16
2017-11-21T15:07:37.510Z,84.63
2017-11-21T15:08:52.816Z,84.82
2017-11-21T15:10:06.488Z,84.82
2017-11-21T15:11:20.604Z,84.53
2017-11-21T15:12:33.325Z,84.82
2017-11-21T15:13:43.407Z,84.53
2017-11-21T15:14:53.259Z,84.53
2017-11-21T15:16:03.359Z,84.63
2017-11-21T15:17:13.179Z,84.72
2017-11-21T15:18:22.733Z,84.53
2017-11-21T15:19:32.871Z,84.44
2017-11-21T15:20:42.699Z,84.63
2017-11-21T15:21:52.511Z,84.72
2017-11-21T15:23:02.334Z,84.53
2017-11-21T15:24:12.420Z,84.53
2017-11-21T15:25:22.521Z,84.53
2017-11-21T15:26:32.642Z,84.53
2017-11-21T15:27:42.729Z,84.63
2017-11-21T15:28:52.568Z,84.44
2017-11-21T15:30:02.654Z,84.44
2017-11-21T15:31:12.786Z,84.72
2017-11-21T15:32:22.871Z,84.53
2017-11-21T15:33:32.710Z,84.63
2017-11-21T15:34:42.787Z,84.53